createdAt,value
2018-05-26T00:00:30.496Z,0.00
2018-05-26T00:01:30.473Z,0.00
2018-05-26T00:02:30.445Z,0.00
2018-05-26T00:03:30.422Z,0.00
2018-05-26T00:04:30.398Z,0.00
2018-05-26T00:05:30.371Z,0.00
2018-05-26T00:06:30.346Z,0.00
2018-05-26T00:07:30.322Z,0.00
2018-05-26T00:08:30.297Z,0.00
2018-05-26T00:09:30.271Z,0.00
2018-05-26T00:10:30.248Z,0.00
2018-05-26T00:11:30.226Z,0.00
2018-05-26T00:12:30.197Z,0.00
2018-05-26T00:13:30.172Z,0.00
2018-05-26T00:14:30.147Z,0.00
2018-05-26T00:15:30.122Z,0.00
2018-05-26T00:16:30.097Z,0.00
2018-05-26T00:17:30.075Z,0.00
2018-05-26T00:18:30.069Z,0.00
2018-05-26T00:19:30.022Z,0.00
2018-05-26T00:20:30.013Z,0.00
2018-05-26T00:21:29.973Z,0.00
2018-05-26T00:22:30.350Z,0.00
2018-05-26T00:23:29.924Z,0.00
2018-05-26T00:24:29.906Z,0.00
2018-05-26T00:25:29.919Z,0.00
2018-05-26T00:26:29.847Z,0.00
2018-05-26T00:27:29.825Z,0.00
2018-05-26T00:28:29.948Z,0.00
2018-05-26T00:29:29.780Z,0.00
2018-05-26T00:30:29.754Z,0.00
2018-05-26T00:31:29.724Z,0.00
2018-05-26T00:32:29.698Z,0.00
2018-05-26T00:33:29.676Z,0.00
2018-05-26T00:34:29.651Z,0.00
2018-05-26T00:35:29.623Z,0.00
2018-05-26T00:36:29.598Z,0.00
2018-05-26T00:37:29.573Z,0.00
2018-05-26T00:38:29.547Z,0.00
2018-05-26T00:39:29.536Z,0.00
2018-05-26T00:40:29.521Z,0.00
2018-05-26T00:41:29.474Z,0.00
2018-05-26T00:42:29.448Z,0.00
2018-05-26T00:43:29.425Z,0.00
2018-05-26T00:44:29.398Z,0.00
2018-05-26T00:45:29.373Z,0.00
2018-05-26T00:46:29.350Z,0.00
2018-05-26T00:47:29.323Z,0.00
2018-05-26T00:48:29.298Z,0.00
2018-05-26T00:49:29.274Z,0.00
2018-05-26T00:50:29.249Z,0.00
2018-05-26T00:51:29.223Z,0.00
2018-05-26T00:52:29.199Z,0.00
2018-05-26T00:53:29.173Z,0.00
2018-05-26T00:54:29.148Z,0.00
2018-05-26T00:55:29.124Z,0.00
2018-05-26T00:56:29.100Z,0.00
2018-05-26T00:57:29.080Z,0.00
2018-05-26T00:58:29.049Z,0.00
2018-05-26T00:59:29.023Z,0.00
2018-05-26T01:00:28.998Z,0.00
2018-05-26T01:01:28.973Z,0.00
2018-05-26T01:02:28.953Z,0.00
2018-05-26T01:03:28.923Z,0.00
2018-05-26T01:04:28.898Z,0.00
2018-05-26T01:05:28.873Z,0.00
2018-05-26T01:06:28.848Z,0.00
2018-05-26T01:07:28.825Z,0.00
2018-05-26T01:08:28.798Z,0.00
2018-05-26T01:09:28.974Z,0.00
2018-05-26T01:10:28.748Z,0.00
2018-05-26T01:11:28.723Z,0.00
2018-05-26T01:12:28.698Z,0.00
2018-05-26T01:13:28.674Z,0.00
2018-05-26T01:14:28.648Z,0.00
2018-05-26T01:15:28.628Z,0.00
2018-05-26T01:16:28.599Z,0.00
2018-05-26T01:17:28.573Z,0.00
2018-05-26T01:18:28.750Z,0.00
2018-05-26T01:19:28.524Z,0.00
2018-05-26T01:20:28.498Z,0.00
2018-05-26T01:21:28.476Z,0.00
2018-05-26T01:22:28.448Z,0.00
2018-05-26T01:23:28.423Z,0.00
2018-05-26T01:24:28.400Z,0.00
2018-05-26T01:25:28.384Z,0.00
2018-05-26T01:26:28.353Z,0.00
2018-05-26T01:27:28.324Z,0.00
2018-05-26T01:28:28.299Z,0.00
2018-05-26T01:29:28.274Z,0.00
2018-05-26T01:30:28.252Z,0.00
2018-05-26T01:31:28.222Z,0.00
2018-05-26T01:32:28.198Z,0.00
2018-05-26T01:33:28.174Z,0.00
2018-05-26T01:34:28.147Z,0.00
2018-05-26T01:35:28.122Z,0.00
2018-05-26T01:36:28.097Z,0.00
2018-05-26T01:37:28.275Z,0.00
2018-05-26T01:38:28.048Z,0.00
2018-05-26T01:39:28.026Z,0.00
2018-05-26T01:40:28.002Z,0.00
2018-05-26T01:41:27.973Z,0.00
2018-05-26T01:42:27.947Z,0.00
2018-05-26T01:43:27.922Z,0.00
2018-05-26T01:44:27.897Z,0.00
2018-05-26T01:45:27.872Z,0.00
2018-05-26T01:46:27.849Z,0.00
2018-05-26T01:47:27.822Z,0.00
2018-05-26T01:48:27.797Z,0.00
2018-05-26T01:49:27.772Z,0.00
2018-05-26T01:50:27.746Z,0.00
2018-05-26T01:51:27.721Z,0.00
2018-05-26T01:52:27.697Z,0.00
2018-05-26T01:53:27.673Z,0.00
2018-05-26T01:54:27.645Z,0.00
2018-05-26T01:55:27.620Z,0.00
2018-05-26T01:56:27.601Z,0.00
2018-05-26T01:57:27.571Z,0.00
2018-05-26T01:58:27.544Z,0.00
2018-05-26T01:59:27.520Z,0.00
2018-05-26T02:00:27.496Z,0.00
2018-05-26T02:01:27.486Z,0.00
2018-05-26T02:02:27.447Z,0.00
2018-05-26T02:03:27.425Z,0.00
2018-05-26T02:04:27.394Z,0.00
2018-05-26T02:05:27.378Z,0.00
2018-05-26T02:06:27.353Z,0.00
2018-05-26T02:07:27.322Z,0.00
2018-05-26T02:08:27.296Z,0.00
2018-05-26T02:09:27.269Z,0.00
2018-05-26T02:10:27.248Z,0.00
2018-05-26T02:11:27.219Z,0.00
2018-05-26T02:12:27.193Z,4.00
2018-05-26T02:13:27.169Z,4.00
2018-05-26T02:14:27.141Z,4.00
2018-05-26T02:15:27.118Z,4.00
2018-05-26T02:16:27.097Z,0.00
2018-05-26T02:17:27.067Z,0.00
2018-05-26T02:18:27.041Z,4.00
2018-05-26T02:19:27.016Z,4.00
2018-05-26T02:20:26.991Z,4.00
2018-05-26T02:21:26.966Z,4.00
2018-05-26T02:22:26.941Z,4.00
2018-05-26T02:23:26.915Z,8.00
2018-05-26T02:24:26.895Z,4.00
2018-05-26T02:25:26.869Z,8.00
2018-05-26T02:26:26.839Z,8.00
2018-05-26T02:27:26.814Z,12.00
2018-05-26T02:28:26.789Z,12.00
2018-05-26T02:29:26.764Z,16.00
2018-05-26T02:30:26.738Z,16.00
2018-05-26T02:31:26.759Z,16.00
2018-05-26T02:32:26.692Z,20.00
2018-05-26T02:33:26.664Z,20.00
2018-05-26T02:34:26.637Z,24.00
2018-05-26T02:35:26.612Z,24.00
2018-05-26T02:36:26.587Z,28.00
2018-05-26T02:37:26.562Z,32.00
2018-05-26T02:38:26.540Z,36.00
2018-05-26T02:39:26.517Z,40.00
2018-05-26T02:40:26.494Z,48.00
2018-05-26T02:41:26.461Z,56.00
2018-05-26T02:42:26.584Z,60.00
2018-05-26T02:43:26.409Z,64.00
2018-05-26T02:44:26.384Z,72.00
2018-05-26T02:45:26.363Z,84.00
2018-05-26T02:46:26.333Z,92.00
2018-05-26T02:47:26.309Z,100.00
2018-05-26T02:48:26.288Z,116.00
2018-05-26T02:49:26.257Z,128.00
2018-05-26T02:50:26.234Z,144.00
2018-05-26T02:51:26.208Z,156.00
2018-05-26T02:52:26.183Z,172.00
2018-05-26T02:53:26.156Z,188.00
2018-05-26T02:54:26.131Z,212.00
2018-05-26T02:55:26.107Z,228.00
2018-05-26T02:56:26.080Z,252.00
2018-05-26T02:57:26.054Z,276.00
2018-05-26T02:58:26.034Z,304.00
2018-05-26T02:59:26.003Z,328.00
2018-05-26T03:00:25.978Z,360.00
2018-05-26T03:01:25.953Z,388.00
2018-05-26T03:02:25.931Z,420.00
2018-05-26T03:03:25.906Z,452.00
2018-05-26T03:04:25.916Z,492.00
2018-05-26T03:05:26.001Z,528.00
2018-05-26T03:06:25.825Z,568.00
2018-05-26T03:07:25.800Z,612.00
2018-05-26T03:08:25.775Z,656.00
2018-05-26T03:09:25.752Z,704.00
2018-05-26T03:10:25.723Z,748.00
2018-05-26T03:11:25.698Z,796.00
2018-05-26T03:12:25.678Z,848.00
2018-05-26T03:13:25.652Z,904.00
2018-05-26T03:14:25.634Z,960.00
2018-05-26T03:15:25.604Z,1016.00
2018-05-26T03:16:25.572Z,1072.00
2018-05-26T03:17:25.550Z,1136.00
2018-05-26T03:18:25.521Z,1196.00
2018-05-26T03:19:25.573Z,1260.00
2018-05-26T03:20:25.470Z,1324.00
2018-05-26T03:21:25.446Z,1396.00
2018-05-26T03:22:25.423Z,1464.00
2018-05-26T03:23:25.399Z,1536.00
2018-05-26T03:24:25.369Z,1608.00
2018-05-26T03:25:25.346Z,1680.00
2018-05-26T03:26:25.317Z,1760.00
2018-05-26T03:27:25.293Z,1836.00
2018-05-26T03:28:25.268Z,1916.00
2018-05-26T03:29:25.243Z,1992.00
2018-05-26T03:30:25.217Z,2072.00
2018-05-26T03:31:25.194Z,2152.00
2018-05-26T03:32:25.168Z,2240.00
2018-05-26T03:33:25.143Z,2324.00
2018-05-26T03:34:25.119Z,2408.00
2018-05-26T03:35:25.090Z,2496.00
2018-05-26T03:36:25.103Z,2584.00
2018-05-26T03:37:25.045Z,2664.00
2018-05-26T03:38:25.014Z,2756.00
2018-05-26T03:39:24.999Z,2840.00
2018-05-26T03:40:24.967Z,2932.00
2018-05-26T03:41:24.956Z,3048.00
2018-05-26T03:42:24.916Z,3212.00
2018-05-26T03:43:24.895Z,3404.00
2018-05-26T03:44:24.863Z,3520.00
2018-05-26T03:45:24.838Z,3624.00
2018-05-26T03:46:24.812Z,3732.00
2018-05-26T03:47:24.787Z,3860.00
2018-05-26T03:48:24.761Z,3944.00
2018-05-26T03:49:24.737Z,4072.00
2018-05-26T03:50:24.711Z,4192.00
2018-05-26T03:51:24.686Z,4312.00
2018-05-26T03:52:24.673Z,4420.00
2018-05-26T03:53:24.638Z,4536.00
2018-05-26T03:54:24.613Z,4652.00
2018-05-26T03:55:24.587Z,4792.00
2018-05-26T03:56:24.562Z,4912.00
2018-05-26T03:57:24.537Z,5032.00
2018-05-26T03:58:24.516Z,5176.00
2018-05-26T03:59:24.489Z,5308.00
2018-05-26T04:01:06.816Z,5552.00
2018-05-26T04:02:06.592Z,5652.00
2018-05-26T04:03:49.727Z,5880.00
2018-05-26T04:04:48.691Z,6012.00
2018-05-26T04:05:48.718Z,6148.00
2018-05-26T04:06:48.644Z,6292.00
2018-05-26T04:07:48.619Z,6416.00
2018-05-26T04:08:48.597Z,6576.00
2018-05-26T04:09:48.569Z,6724.00
2018-05-26T04:10:48.545Z,6860.00
2018-05-26T04:11:48.522Z,7060.00
2018-05-26T04:12:48.497Z,7212.00
2018-05-26T04:13:48.472Z,7388.00
2018-05-26T04:14:48.452Z,7636.00
2018-05-26T04:15:48.428Z,7824.00
2018-05-26T04:16:48.400Z,7956.00
2018-05-26T04:17:48.376Z,8096.00
2018-05-26T04:18:48.353Z,8356.00
2018-05-26T04:19:48.329Z,8544.00
2018-05-26T04:20:48.304Z,8724.00
2018-05-26T04:21:48.281Z,8908.00
2018-05-26T04:22:48.257Z,9104.00
2018-05-26T04:23:48.234Z,9352.00
2018-05-26T04:24:48.210Z,9684.00
2018-05-26T04:25:48.186Z,10004.00
2018-05-26T04:26:48.366Z,10272.00
2018-05-26T04:27:48.142Z,10504.00
2018-05-26T04:28:48.115Z,10872.00
2018-05-26T04:29:48.097Z,11120.00
2018-05-26T04:30:48.082Z,11344.00
2018-05-26T04:31:48.057Z,11492.00
2018-05-26T04:32:48.035Z,11828.00
2018-05-26T04:33:47.999Z,12076.00
2018-05-26T04:34:47.976Z,12396.00
2018-05-26T04:35:47.952Z,12476.00
2018-05-26T04:36:47.929Z,12552.00
2018-05-26T04:37:47.908Z,12740.00
2018-05-26T04:38:47.884Z,12960.00
2018-05-26T04:39:47.869Z,13300.00
2018-05-26T04:40:48.443Z,13844.00
2018-05-26T04:41:48.017Z,14100.00
2018-05-26T04:42:47.791Z,14364.00
2018-05-26T04:43:47.769Z,14684.00
2018-05-26T04:44:47.779Z,15232.00
2018-05-26T04:45:47.723Z,15456.00
2018-05-26T04:46:47.706Z,15552.00
2018-05-26T04:47:47.881Z,15840.00
2018-05-26T04:48:47.656Z,15968.00
2018-05-26T04:49:47.646Z,15872.00
2018-05-26T04:50:47.611Z,15904.00
2018-05-26T04:51:47.792Z,16096.00
2018-05-26T04:52:47.566Z,16640.00
2018-05-26T04:53:47.544Z,16960.00
2018-05-26T04:54:47.522Z,17056.00
2018-05-26T04:55:47.500Z,16960.00
2018-05-26T04:56:47.477Z,17760.00
2018-05-26T04:57:47.456Z,18336.00
2018-05-26T04:58:47.441Z,18368.00
2018-05-26T04:59:47.413Z,18656.00
2018-05-26T05:00:47.396Z,18816.00
2018-05-26T05:01:47.371Z,19072.00
2018-05-26T05:02:47.550Z,19328.00
2018-05-26T05:03:47.326Z,19584.00
2018-05-26T05:04:47.307Z,20160.00
2018-05-26T05:05:47.284Z,20512.00
2018-05-26T05:06:47.265Z,20704.00
2018-05-26T05:07:47.244Z,20832.00
2018-05-26T05:08:47.219Z,21088.00
2018-05-26T05:09:47.399Z,21600.00
2018-05-26T05:10:47.176Z,21824.00
2018-05-26T05:11:47.155Z,22528.00
2018-05-26T05:12:47.141Z,23104.00
2018-05-26T05:13:47.112Z,23392.00
2018-05-26T05:14:47.092Z,23456.00
2018-05-26T05:15:47.071Z,23328.00
2018-05-26T05:16:47.058Z,23008.00
2018-05-26T05:17:47.029Z,23712.00
2018-05-26T05:18:47.010Z,24416.00
2018-05-26T05:19:47.016Z,24512.00
2018-05-26T05:20:46.973Z,24352.00
2018-05-26T05:21:46.946Z,24704.00
2018-05-26T05:22:46.926Z,25152.00
2018-05-26T05:23:46.905Z,26080.00
2018-05-26T05:24:47.089Z,26752.00
2018-05-26T05:25:46.864Z,25952.00
2018-05-26T05:26:46.863Z,26816.00
2018-05-26T05:27:47.624Z,27840.00
2018-05-26T05:28:47.007Z,27968.00
2018-05-26T05:29:46.785Z,28416.00
2018-05-26T05:30:46.763Z,29056.00
2018-05-26T05:31:46.744Z,28768.00
2018-05-26T05:32:46.722Z,28384.00
2018-05-26T05:33:46.702Z,29600.00
2018-05-26T05:34:46.682Z,29568.00
2018-05-26T05:35:46.662Z,29024.00
2018-05-26T05:36:46.641Z,29248.00
2018-05-26T05:37:46.622Z,29280.00
2018-05-26T05:38:46.607Z,29792.00
2018-05-26T05:39:46.583Z,30304.00
2018-05-26T05:40:46.567Z,31232.00
2018-05-26T05:41:46.543Z,31584.00
2018-05-26T05:42:46.523Z,33152.00
2018-05-26T05:43:46.506Z,33056.00
2018-05-26T05:44:46.488Z,33472.00
2018-05-26T05:45:46.465Z,33664.00
2018-05-26T05:46:46.448Z,33888.00
2018-05-26T05:47:46.427Z,33728.00
2018-05-26T05:48:46.406Z,33632.00
2018-05-26T05:49:46.391Z,31200.00
2018-05-26T05:50:46.571Z,28224.00
2018-05-26T05:51:46.351Z,28416.00
2018-05-26T05:52:46.330Z,31744.00
2018-05-26T05:53:46.311Z,33312.00
2018-05-26T05:54:46.300Z,33088.00
2018-05-26T05:55:46.274Z,33280.00
2018-05-26T05:56:46.254Z,33472.00
2018-05-26T05:57:46.237Z,32736.00
2018-05-26T05:58:46.217Z,33664.00
2018-05-26T05:59:46.409Z,33856.00
2018-05-26T06:00:46.181Z,33600.00
2018-05-26T06:01:46.161Z,34816.00
2018-05-26T06:02:46.143Z,35008.00
2018-05-26T06:03:46.124Z,34272.00
2018-05-26T06:04:46.307Z,35616.00
2018-05-26T06:05:46.087Z,37024.00
2018-05-26T06:06:46.068Z,36672.00
2018-05-26T06:07:46.258Z,35968.00
2018-05-26T06:08:46.033Z,34592.00
2018-05-26T06:09:46.016Z,34464.00
2018-05-26T06:11:28.356Z,35264.00
2018-05-26T06:12:28.131Z,34816.00
2018-05-26T06:13:28.113Z,34336.00
2018-05-26T06:14:28.297Z,34240.00
2018-05-26T06:15:28.291Z,32896.00
2018-05-26T06:16:28.057Z,34432.00
2018-05-26T06:17:28.040Z,34624.00
2018-05-26T06:18:28.021Z,32800.00
2018-05-26T06:19:28.205Z,31232.00
2018-05-26T06:20:27.984Z,30432.00
2018-05-26T06:21:27.966Z,28576.00
2018-05-26T06:22:28.151Z,26400.00
2018-05-26T06:23:28.133Z,25696.00
2018-05-26T06:24:28.115Z,25120.00
2018-05-26T06:25:27.894Z,24416.00
2018-05-26T06:26:27.940Z,24000.00
2018-05-26T06:27:27.859Z,23712.00
2018-05-26T06:28:27.841Z,23584.00
2018-05-26T06:29:28.025Z,23648.00
2018-05-26T06:30:28.010Z,26752.00
2018-05-26T06:33:10.133Z,42208.00
2018-05-26T06:34:10.116Z,39776.00
2018-05-26T06:35:10.096Z,40736.00
2018-05-26T06:36:10.083Z,42144.00
2018-05-26T06:37:10.063Z,42880.00
2018-05-26T06:38:09.842Z,45504.00
2018-05-26T06:39:10.028Z,46848.00
2018-05-26T06:40:09.810Z,49376.00
2018-05-26T06:41:09.793Z,51296.00
2018-05-26T06:42:09.777Z,50656.00
2018-05-26T06:43:09.967Z,48192.00
2018-05-26T06:44:09.744Z,48256.00
2018-05-26T06:45:09.730Z,51264.00
2018-05-26T06:46:09.914Z,54336.00
2018-05-26T06:47:09.898Z,55168.00
2018-05-26T06:48:09.680Z,53536.00
2018-05-26T06:49:09.663Z,53216.00
2018-05-26T06:50:09.650Z,52768.00
2018-05-26T06:51:09.640Z,52608.00
2018-05-26T06:52:12.441Z,54976.00
2018-05-26T06:53:09.802Z,55392.00
2018-05-26T06:54:09.792Z,55200.00
2018-05-26T06:55:09.571Z,54624.00
2018-05-26T06:56:09.758Z,55968.00
2018-05-26T06:57:10.547Z,56512.00
2018-05-26T06:58:09.727Z,56320.00
2018-05-26T06:59:09.716Z,55552.00
2018-05-26T07:00:51.859Z,57056.00
2018-05-26T07:01:51.645Z,55744.00
2018-05-26T07:02:51.827Z,55296.00
2018-05-26T07:03:51.813Z,58400.00
2018-05-26T07:04:51.798Z,62176.00
2018-05-26T07:05:51.579Z,59552.00
2018-05-26T07:06:51.768Z,57472.00
2018-05-26T07:07:51.753Z,57632.00
2018-05-26T07:08:51.537Z,60928.00
2018-05-26T07:09:51.522Z,61856.00
2018-05-26T07:10:51.509Z,61824.00
2018-05-26T07:11:51.500Z,61024.00
2018-05-26T07:28:19.187Z,71776.00
2018-05-26T07:29:18.964Z,71584.00
2018-05-26T07:30:18.951Z,72224.00
2018-05-26T07:31:18.937Z,70432.00
2018-05-26T07:33:05.124Z,69760.00
2018-05-26T07:34:01.123Z,71008.00
2018-05-26T07:35:01.263Z,72032.00
2018-05-26T07:36:01.046Z,70752.00
2018-05-26T07:37:01.032Z,68480.00
2018-05-26T07:38:01.016Z,70560.00
2018-05-26T07:39:01.210Z,73376.00
2018-05-26T07:40:00.993Z,71488.00
2018-05-26T07:41:00.974Z,71264.00
2018-05-26T07:42:00.962Z,72352.00
2018-05-26T07:43:00.948Z,73952.00
2018-05-26T07:44:01.138Z,75648.00
2018-05-26T07:45:00.928Z,76768.00
2018-05-26T07:46:01.112Z,76096.00
2018-05-26T07:47:01.099Z,74592.00
2018-05-26T07:50:49.731Z,73984.00
2018-05-26T07:51:49.518Z,73632.00
2018-05-26T07:52:49.499Z,75776.00
2018-05-26T07:57:20.489Z,76192.00
2018-05-26T07:58:20.354Z,73088.00
2018-05-26T07:59:20.262Z,76672.00
2018-05-26T08:00:21.263Z,76608.00
2018-05-26T08:01:20.439Z,75072.00
2018-05-26T08:02:20.223Z,75968.00
2018-05-26T08:03:20.413Z,77728.00
2018-05-26T08:04:20.200Z,77248.00
2018-05-26T08:05:20.241Z,77984.00
2018-05-26T08:06:20.375Z,77408.00
2018-05-26T08:07:20.179Z,77664.00
2018-05-26T08:08:20.154Z,74944.00
2018-05-26T08:09:20.139Z,76672.00
2018-05-26T08:10:20.134Z,77504.00
2018-05-26T08:11:20.113Z,75136.00
2018-05-26T08:12:20.101Z,77984.00
2018-05-26T08:13:20.089Z,81056.00
2018-05-26T08:14:20.076Z,82080.00
2018-05-26T08:15:20.064Z,84192.00
2018-05-26T08:16:20.056Z,83296.00
2018-05-26T08:17:20.058Z,82048.00
2018-05-26T08:18:20.231Z,81216.00
2018-05-26T08:19:20.018Z,85248.00
2018-05-26T08:20:20.012Z,81920.00
2018-05-26T08:21:19.994Z,81888.00
2018-05-26T08:22:19.982Z,87264.00
2018-05-26T08:23:19.971Z,86528.00
2018-05-26T08:24:19.959Z,86112.00
2018-05-26T08:25:19.948Z,86944.00
2018-05-26T08:26:19.936Z,85504.00
2018-05-26T08:27:19.968Z,83840.00
2018-05-26T08:28:19.915Z,84704.00
2018-05-26T08:29:19.903Z,86848.00
2018-05-26T08:30:19.892Z,86528.00
2018-05-26T08:31:19.883Z,85408.00
2018-05-26T08:32:19.870Z,87872.00
2018-05-26T08:33:19.859Z,90048.00
2018-05-26T08:34:19.852Z,89376.00
2018-05-26T08:35:19.837Z,88704.00
2018-05-26T08:36:19.827Z,89408.00
2018-05-26T08:37:19.819Z,88448.00
2018-05-26T08:38:19.804Z,91424.00
2018-05-26T08:39:19.793Z,93216.00
2018-05-26T08:40:19.783Z,89376.00
2018-05-26T08:41:19.773Z,91008.00
2018-05-26T08:42:19.762Z,95232.00
2018-05-26T08:43:19.751Z,91840.00
2018-05-26T08:44:19.749Z,92640.00
2018-05-26T08:45:19.730Z,95520.00
2018-05-26T08:46:19.717Z,93408.00
2018-05-26T08:47:19.709Z,90880.00
2018-05-26T08:48:19.696Z,92224.00
2018-05-26T08:49:19.688Z,96608.00
2018-05-26T08:51:02.041Z,91328.00
2018-05-26T08:52:02.029Z,96352.00
2018-05-26T08:53:02.029Z,93600.00
2018-05-26T08:54:01.806Z,91200.00
2018-05-26T08:55:01.796Z,93632.00
2018-05-26T08:56:01.788Z,93696.00
2018-05-26T08:57:01.981Z,93632.00
2018-05-26T08:58:01.765Z,93408.00
2018-05-26T08:59:02.361Z,94240.00
2018-05-26T09:00:01.744Z,95648.00
2018-05-26T09:01:01.737Z,99232.00
2018-05-26T09:02:01.725Z,98752.00
2018-05-26T09:03:01.717Z,97696.00
2018-05-26T09:04:01.704Z,98976.00
2018-05-26T09:05:01.700Z,95648.00
2018-05-26T09:06:01.889Z,93792.00
2018-05-26T09:07:01.675Z,93856.00
2018-05-26T09:08:01.867Z,94496.00
2018-05-26T09:09:01.657Z,92544.00
2018-05-26T09:10:01.650Z,93088.00
2018-05-26T09:11:01.637Z,97312.00
2018-05-26T09:12:01.629Z,101152.00
2018-05-26T09:13:01.616Z,101504.00
2018-05-26T09:14:01.607Z,99712.00
2018-05-26T09:15:01.608Z,98976.00
2018-05-26T09:16:01.587Z,98496.00
2018-05-26T09:17:01.577Z,96992.00
2018-05-26T09:18:01.570Z,97728.00
2018-05-26T09:19:01.558Z,98944.00
2018-05-26T09:20:01.547Z,102272.00
2018-05-26T09:21:01.537Z,102400.00
2018-05-26T09:22:01.527Z,104096.00
2018-05-26T09:23:01.519Z,103392.00
2018-05-26T09:24:01.514Z,103008.00
2018-05-26T09:25:01.517Z,99840.00
2018-05-26T09:26:01.492Z,98240.00
2018-05-26T09:27:01.479Z,98592.00
2018-05-26T09:28:01.470Z,100096.00
2018-05-26T09:29:01.458Z,100512.00
2018-05-26T09:30:01.453Z,98560.00
2018-05-26T09:31:01.440Z,99680.00
2018-05-26T09:32:01.430Z,100960.00
2018-05-26T09:33:01.420Z,98400.00
2018-05-26T09:34:01.613Z,96928.00
2018-05-26T09:35:01.404Z,98464.00
2018-05-26T09:36:01.392Z,99904.00
2018-05-26T09:37:01.383Z,101248.00
2018-05-26T09:38:01.374Z,100992.00
2018-05-26T09:39:01.366Z,97408.00
2018-05-26T09:40:01.365Z,99712.00
2018-05-26T09:41:01.345Z,103264.00
2018-05-26T09:42:01.344Z,102304.00
2018-05-26T09:43:01.328Z,99200.00
2018-05-26T09:44:01.319Z,102368.00
2018-05-26T09:45:01.310Z,102816.00
2018-05-26T09:46:01.299Z,100544.00
2018-05-26T09:47:01.290Z,100832.00
2018-05-26T09:48:01.281Z,98848.00
2018-05-26T09:49:01.273Z,97792.00
2018-05-26T09:50:01.262Z,101024.00
2018-05-26T09:51:01.254Z,96512.00
2018-05-26T09:52:01.247Z,94688.00
2018-05-26T09:53:01.236Z,99072.00
2018-05-26T09:54:01.226Z,100224.00
2018-05-26T09:55:01.216Z,98336.00
2018-05-26T09:56:01.218Z,96928.00
2018-05-26T09:57:01.197Z,96672.00
2018-05-26T09:58:01.239Z,100640.00
2018-05-26T09:59:01.187Z,101952.00
2018-05-26T10:00:01.170Z,99296.00
2018-05-26T10:01:01.171Z,100352.00
2018-05-26T10:02:01.158Z,102144.00
2018-05-26T10:03:01.144Z,100544.00
2018-05-26T10:04:01.136Z,99136.00
2018-05-26T10:05:01.127Z,99872.00
2018-05-26T10:06:01.122Z,98208.00
2018-05-26T10:07:01.109Z,98016.00
2018-05-26T10:08:01.100Z,98080.00
2018-05-26T10:09:01.091Z,98016.00
2018-05-26T10:10:01.090Z,102368.00
2018-05-26T10:11:01.074Z,102656.00
2018-05-26T10:12:01.067Z,101376.00
2018-05-26T10:13:01.056Z,100800.00
2018-05-26T10:14:01.048Z,96608.00
2018-05-26T10:15:01.041Z,93952.00
2018-05-26T10:16:01.034Z,94528.00
2018-05-26T10:17:01.029Z,101696.00
2018-05-26T10:18:01.015Z,102912.00
2018-05-26T10:19:01.013Z,98624.00
2018-05-26T10:20:01.040Z,98144.00
2018-05-26T10:21:00.989Z,100128.00
2018-05-26T10:22:00.981Z,98720.00
2018-05-26T10:23:00.973Z,99360.00
2018-05-26T10:24:00.967Z,97280.00
2018-05-26T10:25:00.955Z,98464.00
2018-05-26T10:26:00.948Z,97888.00
2018-05-26T10:27:00.939Z,96768.00
2018-05-26T10:28:00.931Z,98560.00
2018-05-26T10:29:00.922Z,100992.00
2018-05-26T10:30:00.938Z,98400.00
2018-05-26T10:31:00.907Z,100512.00
2018-05-26T10:32:00.901Z,100896.00
2018-05-26T10:33:00.890Z,97088.00
2018-05-26T10:34:00.882Z,95680.00
2018-05-26T10:35:00.874Z,100672.00
2018-05-26T10:36:00.867Z,104160.00
2018-05-26T10:37:00.858Z,103360.00
2018-05-26T10:38:00.851Z,100288.00
2018-05-26T10:39:00.876Z,101344.00
2018-05-26T10:40:00.834Z,102976.00
2018-05-26T10:41:00.830Z,102240.00
2018-05-26T10:42:00.822Z,102112.00
2018-05-26T10:43:00.812Z,102976.00
2018-05-26T10:44:00.801Z,104576.00
2018-05-26T10:45:00.794Z,103840.00
2018-05-26T10:46:00.786Z,102432.00
2018-05-26T10:47:00.778Z,104192.00
2018-05-26T10:48:00.769Z,104608.00
2018-05-26T10:49:00.764Z,107712.00
2018-05-26T10:50:00.796Z,107616.00
2018-05-26T10:51:00.746Z,105280.00
2018-05-26T10:52:00.744Z,107008.00
2018-05-26T10:53:00.730Z,104864.00
2018-05-26T10:54:00.722Z,104992.00
2018-05-26T10:55:00.717Z,107808.00
2018-05-26T10:56:00.789Z,108480.00
2018-05-26T10:57:00.748Z,106080.00
2018-05-26T10:58:00.693Z,105408.00
2018-05-26T10:59:00.684Z,105504.00
2018-05-26T11:00:00.677Z,105632.00
2018-05-26T11:01:00.669Z,103520.00
2018-05-26T11:02:00.661Z,101152.00
2018-05-26T11:03:00.817Z,101344.00
2018-05-26T11:04:00.647Z,102944.00
2018-05-26T11:05:00.639Z,103456.00
2018-05-26T11:06:00.636Z,104960.00
2018-05-26T11:07:00.627Z,105888.00
2018-05-26T11:08:00.619Z,104640.00
2018-05-26T11:09:00.613Z,104544.00
2018-05-26T11:10:00.608Z,106752.00
2018-05-26T11:11:00.599Z,107200.00
2018-05-26T11:12:00.591Z,103936.00
2018-05-26T11:13:00.587Z,104352.00
2018-05-26T11:14:00.578Z,106080.00
2018-05-26T11:15:00.571Z,106304.00
2018-05-26T11:16:00.564Z,104128.00
2018-05-26T11:17:00.560Z,102208.00
2018-05-26T11:18:00.783Z,101920.00
2018-05-26T11:19:00.598Z,102048.00
2018-05-26T11:20:00.537Z,104544.00
2018-05-26T11:21:00.531Z,107040.00
2018-05-26T11:22:00.525Z,107968.00
2018-05-26T11:23:00.519Z,106496.00
2018-05-26T11:24:00.837Z,104192.00
2018-05-26T11:25:00.506Z,106496.00
2018-05-26T11:26:00.520Z,106080.00
2018-05-26T11:27:00.493Z,99456.00
2018-05-26T11:28:00.486Z,105408.00
2018-05-26T11:29:00.551Z,107296.00
2018-05-26T11:30:00.473Z,103040.00
2018-05-26T11:31:00.506Z,104288.00
2018-05-26T11:32:00.461Z,109504.00
2018-05-26T11:33:00.604Z,104000.00
2018-05-26T11:34:00.448Z,103712.00
2018-05-26T11:35:00.443Z,106848.00
2018-05-26T11:36:00.435Z,105504.00
2018-05-26T11:37:00.428Z,105280.00
2018-05-26T11:38:00.428Z,106016.00
2018-05-26T11:39:00.420Z,102848.00
2018-05-26T11:40:00.409Z,110784.00
2018-05-26T11:41:00.403Z,113184.00
2018-05-26T11:42:00.397Z,107680.00
2018-05-26T11:43:00.391Z,101728.00
2018-05-26T11:44:00.387Z,101728.00
2018-05-26T11:45:00.377Z,106272.00
2018-05-26T11:46:00.375Z,104576.00
2018-05-26T11:47:00.365Z,100032.00
2018-05-26T11:48:00.357Z,99136.00
2018-05-26T11:49:00.351Z,104704.00
2018-05-26T11:50:00.345Z,107424.00
2018-05-26T11:51:00.340Z,106336.00
2018-05-26T11:52:00.331Z,106592.00
2018-05-26T11:53:00.325Z,107072.00
2018-05-26T11:54:00.323Z,107680.00
2018-05-26T11:55:00.315Z,108384.00
2018-05-26T11:56:00.311Z,110016.00
2018-05-26T11:57:00.298Z,112000.00
2018-05-26T11:58:00.293Z,111776.00
2018-05-26T11:59:00.286Z,110528.00
2018-05-26T12:00:00.281Z,109024.00
2018-05-26T12:01:00.274Z,109152.00
2018-05-26T12:02:00.326Z,113920.00
2018-05-26T12:03:00.263Z,116608.00
2018-05-26T12:04:00.253Z,112832.00
2018-05-26T12:05:00.245Z,105568.00
2018-05-26T12:06:00.239Z,95136.00
2018-05-26T12:07:00.240Z,89408.00
2018-05-26T12:08:00.226Z,87360.00
2018-05-26T12:09:00.220Z,90112.00
2018-05-26T12:10:00.214Z,89472.00
2018-05-26T12:11:00.208Z,90176.00
2018-05-26T12:12:00.201Z,93696.00
2018-05-26T12:13:00.195Z,96608.00
2018-05-26T12:14:00.189Z,98240.00
2018-05-26T12:15:00.183Z,98016.00
2018-05-26T12:16:00.176Z,97760.00
2018-05-26T12:17:00.172Z,90048.00
2018-05-26T12:18:00.165Z,99456.00
2018-05-26T12:19:00.159Z,101728.00
2018-05-26T12:20:00.153Z,99488.00
2018-05-26T12:21:00.147Z,101920.00
2018-05-26T12:22:00.141Z,98368.00
2018-05-26T12:23:00.139Z,98816.00
2018-05-26T12:24:00.128Z,105056.00
2018-05-26T12:25:00.121Z,105536.00
2018-05-26T12:26:00.115Z,111200.00
2018-05-26T12:27:00.109Z,111200.00
2018-05-26T12:28:00.103Z,109696.00
2018-05-26T12:29:00.097Z,109472.00
2018-05-26T12:30:00.090Z,108800.00
2018-05-26T12:31:00.092Z,107136.00